Forside
METAR-TAF:

METAR-TAF

Lufthavne :

Grayslake, Illinois, USA

Breddekreds: 42-19-29N, længdekreds: 088-04-27W, højde: 240 m

Aktuelle vejr

Denne rapport blev lavet for 8 minutter siden, kl. 17:55 UTC
Vind stille
Temperatur 11°C
Fugtighed 76%
Tryk 1024 hPa
Sigt: 16.1 km
Spredte skyer i en højde af 6500 ft
Brudte skyer i en højde af 7000 ft

METAR: KMBO 231755Z AUTO 00000KT 10SM SCT065 BKN070 11/07 A3024 RMK AO2

Tid: 12:03 (18:03 UTC)


TAF: fraværende

Vejrobservationer og prognoser fra mere end 4000 lufthavne (METAR og TAF).

De gule og røde prikker repræsenterer de meteorologiske stationer.

Flyt musen over at se navnet på stationen.

Så klik over at se vejr observationer og prognoser.

At skifte det kort: Klik på de grønne knapper med et sort kors for at zoome ind; på den grønne knap med en bindestreg for at zoome ud; eller på de grønne pile for tilstødende kort.


METAR-TAF: